createdAt,value
2023-03-22T00:00:00.477Z,97733.34
2023-03-22T00:02:27.573Z,97728.38
2023-03-22T00:04:54.777Z,97723.50
2023-03-22T00:07:21.836Z,97721.69
2023-03-22T00:09:48.856Z,97721.31
2023-03-22T00:12:15.850Z,97711.16
2023-03-22T00:14:43.079Z,97710.91
2023-03-22T00:17:10.119Z,97724.69
2023-03-22T00:19:37.527Z,97711.19
2023-03-22T00:22:06.407Z,97711.03
2023-03-22T00:24:33.602Z,97719.19
2023-03-22T00:27:01.156Z,97714.19
2023-03-22T00:29:28.350Z,97707.59
2023-03-22T00:31:56.420Z,97703.38
2023-03-22T00:34:23.607Z,97700.75
2023-03-22T00:36:52.031Z,97704.19
2023-03-22T00:39:20.110Z,97713.16
2023-03-22T00:41:47.862Z,97708.31
2023-03-22T00:44:14.843Z,97696.72
2023-03-22T00:46:41.870Z,97696.72
2023-03-22T00:49:09.092Z,97681.31
2023-03-22T00:51:36.098Z,97685.19
2023-03-22T00:54:03.178Z,97673.22
2023-03-22T00:56:30.211Z,97663.72
2023-03-22T00:59:06.401Z,97663.38
2023-03-22T01:01:33.539Z,97676.69
2023-03-22T01:04:00.699Z,97673.91
2023-03-22T01:06:27.849Z,97684.84
2023-03-22T01:08:55.377Z,97684.56
2023-03-22T01:11:22.492Z,97678.19
2023-03-22T01:13:50.069Z,97679.38
2023-03-22T01:16:18.059Z,97675.09
2023-03-22T01:18:45.553Z,97666.34
2023-03-22T01:21:13.006Z,97679.53
2023-03-22T01:23:40.717Z,97673.09
2023-03-22T01:26:07.901Z,97660.09
2023-03-22T01:28:34.903Z,97665.00
2023-03-22T01:31:03.240Z,97670.88
2023-03-22T01:33:30.927Z,97678.38
2023-03-22T01:35:58.399Z,97669.84
2023-03-22T01:38:26.264Z,97668.94
2023-03-22T01:40:57.541Z,97675.06
2023-03-22T01:43:26.861Z,97684.16
2023-03-22T01:45:55.410Z,97683.81
2023-03-22T01:48:42.168Z,97683.97
2023-03-22T01:51:14.444Z,97685.72
2023-03-22T01:54:04.500Z,97682.31
2023-03-22T01:56:39.229Z,97682.03
2023-03-22T01:59:12.887Z,97677.31
2023-03-22T02:02:05.474Z,97678.28
2023-03-22T02:04:38.478Z,97690.66
2023-03-22T02:07:10.334Z,97692.00
2023-03-22T02:09:42.860Z,97705.00
2023-03-22T02:12:34.175Z,97694.63
2023-03-22T02:15:29.109Z,97696.03
2023-03-22T02:18:19.076Z,97701.63
2023-03-22T02:21:15.614Z,97704.44
2023-03-22T02:24:06.326Z,97695.91
2023-03-22T02:26:51.486Z,97688.94
2023-03-22T02:29:45.322Z,97698.47
2023-03-22T02:32:21.679Z,97695.84
2023-03-22T02:35:09.701Z,97703.09
2023-03-22T02:38:00.911Z,97701.16
2023-03-22T02:40:32.201Z,97706.28
2023-03-22T02:43:18.464Z,97703.41
2023-03-22T02:45:55.414Z,97702.25
2023-03-22T02:48:30.354Z,97696.66
2023-03-22T02:51:04.050Z,97702.44
2023-03-22T02:53:41.284Z,97707.78
2023-03-22T02:56:16.853Z,97706.47
2023-03-22T02:58:52.118Z,97709.25
2023-03-22T03:01:29.355Z,97706.25
2023-03-22T03:04:01.661Z,97705.47
2023-03-22T03:06:33.684Z,97707.81
2023-03-22T03:09:04.967Z,97702.59
2023-03-22T03:11:32.638Z,97697.28
2023-03-22T03:14:00.123Z,97697.53
2023-03-22T03:16:30.910Z,97703.34
2023-03-22T03:19:29.824Z,97706.56
2023-03-22T03:22:34.757Z,97711.47
2023-03-22T03:25:25.995Z,97714.69
2023-03-22T03:28:23.147Z,97725.06
2023-03-22T03:31:22.790Z,97724.63
2023-03-22T03:34:02.866Z,97719.16
2023-03-22T03:36:37.912Z,97719.94
2023-03-22T03:39:10.097Z,97719.03
2023-03-22T03:41:38.048Z,97717.38
2023-03-22T03:44:06.283Z,97707.66
2023-03-22T03:46:33.562Z,97712.53
2023-03-22T03:49:02.917Z,97708.47
2023-03-22T03:51:30.214Z,97719.53
2023-03-22T03:53:57.143Z,97717.16
2023-03-22T03:56:24.355Z,97714.50
2023-03-22T03:58:52.579Z,97712.50
2023-03-22T04:01:20.848Z,97721.94
2023-03-22T04:04:10.634Z,97723.50
2023-03-22T04:06:50.307Z,97730.09
2023-03-22T04:09:22.067Z,97729.31
2023-03-22T04:11:57.611Z,97727.91
2023-03-22T04:14:26.666Z,97736.94
2023-03-22T04:16:56.561Z,97733.13
2023-03-22T04:19:24.849Z,97734.25
2023-03-22T04:21:53.300Z,97741.72
2023-03-22T04:24:22.255Z,97738.03
2023-03-22T04:26:52.733Z,97730.91
2023-03-22T04:29:36.783Z,97739.31
2023-03-22T04:32:24.789Z,97741.78
2023-03-22T04:34:53.448Z,97744.88
2023-03-22T04:37:24.683Z,97746.91
2023-03-22T04:40:07.363Z,97755.50
2023-03-22T04:43:06.589Z,97750.97
2023-03-22T04:45:46.383Z,97747.34
2023-03-22T04:48:20.649Z,97747.53
2023-03-22T04:50:47.855Z,97744.44
2023-03-22T04:53:15.182Z,97751.69
2023-03-22T04:55:45.575Z,97756.38
2023-03-22T04:58:12.722Z,97756.06
2023-03-22T05:00:42.513Z,97751.41
2023-03-22T05:03:11.117Z,97754.63
2023-03-22T05:05:50.991Z,97759.47
2023-03-22T05:08:17.988Z,97759.09
2023-03-22T05:10:47.795Z,97758.91
2023-03-22T05:13:14.767Z,97767.63
2023-03-22T05:15:45.783Z,97754.84
2023-03-22T05:18:16.654Z,97766.00
2023-03-22T05:20:44.270Z,97767.06
2023-03-22T05:23:19.378Z,97768.63
2023-03-22T05:25:50.788Z,97768.84
2023-03-22T05:28:19.827Z,97772.88
2023-03-22T05:31:05.848Z,97779.66
2023-03-22T05:33:42.523Z,97786.41
2023-03-22T05:36:12.901Z,97777.88
2023-03-22T05:38:56.682Z,97786.88
2023-03-22T05:41:24.335Z,97778.69
2023-03-22T05:43:51.462Z,97774.09
2023-03-22T05:46:19.105Z,97781.44
2023-03-22T05:49:11.672Z,97780.34
2023-03-22T05:51:42.219Z,97780.72
2023-03-22T05:54:11.020Z,97777.88
2023-03-22T05:56:44.377Z,97783.91
2023-03-22T05:59:11.554Z,97776.94
2023-03-22T06:01:39.573Z,97782.63
2023-03-22T06:04:21.233Z,97786.28
2023-03-22T06:07:01.038Z,97786.75
2023-03-22T06:09:57.411Z,97785.94
2023-03-22T06:12:30.244Z,97793.06
2023-03-22T06:15:08.704Z,97795.91
2023-03-22T06:17:36.274Z,97795.44
2023-03-22T06:20:10.346Z,97797.00
2023-03-22T06:22:39.162Z,97795.91
2023-03-22T06:25:08.378Z,97794.13
2023-03-22T06:27:40.298Z,97800.44
2023-03-22T06:30:08.458Z,97800.06
2023-03-22T06:32:47.552Z,97805.41
2023-03-22T06:35:15.766Z,97806.13
2023-03-22T06:37:43.016Z,97813.22
2023-03-22T06:40:10.852Z,97822.38
2023-03-22T06:42:38.102Z,97815.38
2023-03-22T06:45:14.707Z,97812.84
2023-03-22T06:47:45.004Z,97813.44
2023-03-22T06:50:12.455Z,97812.03
2023-03-22T06:52:55.294Z,97812.34
2023-03-22T06:55:22.528Z,97818.44
2023-03-22T06:57:49.962Z,97824.97
2023-03-22T07:00:17.301Z,97830.06
2023-03-22T07:02:44.313Z,97836.47
2023-03-22T07:05:31.744Z,97829.78
2023-03-22T07:07:58.937Z,97822.22
2023-03-22T07:10:36.271Z,97829.69
2023-03-22T07:13:04.210Z,97826.81
2023-03-22T07:15:33.112Z,97830.50
2023-03-22T07:18:08.685Z,97835.94
2023-03-22T07:20:41.733Z,97839.25
2023-03-22T07:23:10.918Z,97841.63
2023-03-22T07:25:47.188Z,97843.03
2023-03-22T07:28:22.974Z,97845.75
2023-03-22T07:30:59.199Z,97840.44
2023-03-22T07:33:26.518Z,97842.22
2023-03-22T07:35:55.995Z,97840.88
2023-03-22T07:38:23.349Z,97839.16
2023-03-22T07:40:54.805Z,97837.78
2023-03-22T07:43:25.040Z,97841.72
2023-03-22T07:45:58.270Z,97847.81
2023-03-22T07:48:43.568Z,97857.22
2023-03-22T07:51:33.606Z,97856.56
2023-03-22T07:54:01.479Z,97866.41
2023-03-22T07:56:29.509Z,97868.00
2023-03-22T07:58:56.879Z,97871.50
2023-03-22T08:01:24.817Z,97865.16
2023-03-22T08:03:54.658Z,97872.59
2023-03-22T08:06:40.527Z,97861.47
2023-03-22T08:09:08.600Z,97868.59
2023-03-22T08:11:36.486Z,97877.13
2023-03-22T08:14:03.508Z,97874.38
2023-03-22T08:16:33.955Z,97874.88
2023-03-22T08:19:04.317Z,97880.69
2023-03-22T08:21:35.366Z,97871.66
2023-03-22T08:24:03.917Z,97871.34
2023-03-22T08:26:54.085Z,97868.28
2023-03-22T08:29:28.480Z,97869.69
2023-03-22T08:32:02.167Z,97872.66
2023-03-22T08:34:33.436Z,97872.34
2023-03-22T08:37:00.692Z,97879.25
2023-03-22T08:39:28.088Z,97882.19
2023-03-22T08:42:07.087Z,97876.69
2023-03-22T08:44:35.506Z,97874.34
2023-03-22T08:47:05.923Z,97887.81
2023-03-22T08:49:33.536Z,97890.41
2023-03-22T08:52:08.878Z,97882.94
2023-03-22T08:54:58.851Z,97895.13
2023-03-22T08:57:51.893Z,97898.00
2023-03-22T09:00:49.016Z,97892.25
2023-03-22T09:03:43.599Z,97898.25
2023-03-22T09:06:11.327Z,97903.13
2023-03-22T09:08:42.208Z,97918.16
2023-03-22T09:11:17.637Z,97910.44
2023-03-22T09:13:46.380Z,97915.66
2023-03-22T09:16:13.641Z,97913.91
2023-03-22T09:18:43.438Z,97919.31
2023-03-22T09:21:15.270Z,97928.88
2023-03-22T09:23:56.829Z,97918.19
2023-03-22T09:26:37.537Z,97929.34
2023-03-22T09:29:06.120Z,97926.16
2023-03-22T09:31:34.111Z,97929.41
2023-03-22T09:34:22.153Z,97927.91
2023-03-22T09:36:49.644Z,97920.72
2023-03-22T09:39:20.064Z,97932.56
2023-03-22T09:41:59.566Z,97943.97
2023-03-22T09:44:29.797Z,97933.91
2023-03-22T10:17:54.757Z,97939.13
2023-03-22T10:20:30.624Z,97946.09
2023-03-22T10:23:00.146Z,97942.28
2023-03-22T10:25:42.478Z,97946.94
2023-03-22T10:28:34.982Z,97947.94
2023-03-22T10:31:05.207Z,97938.72
2023-03-22T10:33:50.648Z,97943.53
2023-03-22T10:36:22.469Z,97937.13
2023-03-22T10:38:58.070Z,97933.94
2023-03-22T10:41:27.875Z,97934.94
2023-03-22T10:44:00.433Z,97941.44
2023-03-22T10:46:33.744Z,97942.41
2023-03-22T10:49:02.376Z,97939.78
2023-03-22T10:51:48.880Z,97940.75
2023-03-22T10:54:21.338Z,97941.88
2023-03-22T10:56:48.523Z,97937.63
2023-03-22T10:59:42.637Z,97945.19
2023-03-22T11:02:32.046Z,97946.66
2023-03-22T11:05:02.105Z,97938.50
2023-03-22T11:07:42.994Z,97942.13
2023-03-22T11:10:09.935Z,97938.06
2023-03-22T11:12:47.341Z,97939.50
2023-03-22T11:15:26.485Z,97935.00
2023-03-22T11:17:58.684Z,97929.63
2023-03-22T11:20:26.212Z,97934.63
2023-03-22T11:22:53.512Z,97932.91
2023-03-22T11:25:31.606Z,97932.97
2023-03-22T11:28:10.363Z,97926.94
2023-03-22T11:30:37.771Z,97932.00
2023-03-22T11:33:20.112Z,97925.97
2023-03-22T11:35:54.022Z,97921.13
2023-03-22T11:38:40.091Z,97915.94
2023-03-22T11:41:25.242Z,97921.34
2023-03-22T11:43:55.618Z,97914.06
2023-03-22T11:46:23.548Z,97914.88
2023-03-22T11:48:53.118Z,97911.19
2023-03-22T11:51:30.620Z,97898.13
2023-03-22T11:54:06.733Z,97913.25
2023-03-22T11:56:34.491Z,97904.28
2023-03-22T11:59:13.564Z,97903.91
2023-03-22T12:01:43.203Z,97903.47
2023-03-22T12:04:16.549Z,97903.41
2023-03-22T12:06:44.406Z,97907.84
2023-03-22T12:09:25.868Z,97901.16
2023-03-22T12:11:57.476Z,97893.44
2023-03-22T12:14:49.146Z,97897.16
2023-03-22T12:17:19.048Z,97894.03
2023-03-22T12:20:13.710Z,97895.56
2023-03-22T12:22:51.272Z,97896.94
2023-03-22T12:25:27.149Z,97889.63
2023-03-22T12:27:58.281Z,97895.13
2023-03-22T12:30:36.485Z,97893.50
2023-03-22T12:33:10.737Z,97891.50
2023-03-22T12:35:43.835Z,97888.03
2023-03-22T12:38:28.213Z,97897.34
2023-03-22T12:41:00.816Z,97885.78
2023-03-22T12:43:54.500Z,97879.78
2023-03-22T12:46:26.443Z,97883.97
2023-03-22T12:49:02.956Z,97888.50
2023-03-22T12:51:29.889Z,97889.03
2023-03-22T12:53:59.742Z,97885.34
2023-03-22T12:56:38.448Z,97882.28
2023-03-22T12:59:12.727Z,97881.78
2023-03-22T13:01:59.181Z,97896.66
2023-03-22T13:04:28.531Z,97893.69
2023-03-22T13:07:08.944Z,97885.94
2023-03-22T13:09:50.469Z,97886.31
2023-03-22T13:12:17.653Z,97878.31
2023-03-22T13:14:50.989Z,97882.81
2023-03-22T13:17:24.376Z,97882.59
2023-03-22T13:20:08.144Z,97871.81
2023-03-22T13:22:38.306Z,97870.59
2023-03-22T13:25:14.701Z,97872.22
2023-03-22T13:28:03.638Z,97875.38
2023-03-22T13:30:37.028Z,97875.47
2023-03-22T13:33:09.891Z,97874.56
2023-03-22T13:35:51.382Z,97871.81
2023-03-22T13:38:30.593Z,97876.16
2023-03-22T13:41:07.949Z,97877.50
2023-03-22T13:43:46.967Z,97873.38
2023-03-22T13:46:53.993Z,97872.19
2023-03-22T13:49:42.619Z,97868.22
2023-03-22T13:52:22.348Z,97864.47
2023-03-22T13:54:52.473Z,97858.81
2023-03-22T13:57:45.327Z,97859.72
2023-03-22T14:00:36.831Z,97859.25
2023-03-22T14:03:27.361Z,97864.78
2023-03-22T14:06:09.650Z,97862.44
2023-03-22T14:08:38.067Z,97859.03
2023-03-22T14:11:16.564Z,97859.63
2023-03-22T14:13:49.328Z,97863.28
2023-03-22T14:16:21.094Z,97861.88
2023-03-22T14:18:49.793Z,97860.81
2023-03-22T14:21:35.669Z,97859.59
